Time;durP1;ratioP1;P1;durP2;ratioP2;P2;SDS_P1;SDS_P2;PMS_P1;PMS_P2;Temp;Humidity;BMP_temperature;BMP_pressure;BME280_temperature;BME280_humidity;BME280_pressure;Samples;Min_cycle;Max_cycle;Signal;HPM_P1;HPM_P2
2021/12/18 00:02:38;;;;;;;13.18;8.70;;;;;;;2.86;100.00;100521.63;5074908;28;20047;-76
2021/12/18 00:05:18;;;;;;;12.05;8.20;;;;;;;2.91;100.00;100516.66;5073702;28;20040;-76
2021/12/18 00:14:52;;;;;;;8.13;5.60;;;;;;;2.94;100.00;100530.06;5074984;28;20078;-76
2021/12/18 00:17:38;;;;;;;10.52;6.82;;;;;;;2.91;100.00;100524.19;5074542;28;20574;-77
2021/12/18 00:20:36;;;;;;;10.55;6.72;;;;;;;3.06;100.00;100531.88;5074519;28;20032;-77
2021/12/18 00:23:02;;;;;;;10.00;6.90;;;;;;;2.87;100.00;100498.22;5074565;28;20024;-76
2021/12/18 00:25:31;;;;;;;12.38;7.20;;;;;;;2.98;100.00;100538.47;5074387;28;20035;-75
2021/12/18 00:28:29;;;;;;;11.13;7.28;;;;;;;3.00;100.00;100530.16;5074481;28;20032;-77
2021/12/18 00:30:55;;;;;;;10.93;6.65;;;;;;;3.04;100.00;100531.03;5074427;28;20036;-76
2021/12/18 00:33:27;;;;;;;11.68;7.88;;;;;;;2.73;100.00;100472.13;5073026;28;20016;-77
2021/12/18 00:39:24;;;;;;;10.70;7.22;;;;;;;3.14;100.00;100531.16;5074339;28;20028;-77
2021/12/18 00:42:48;;;;;;;11.10;6.85;;;;;;;3.36;100.00;100532.22;5074331;28;20052;-78
2021/12/18 00:45:59;;;;;;;9.10;5.90;;;;;;;3.18;100.00;100537.88;5073013;28;20589;-77
2021/12/18 00:51:46;;;;;;;8.88;6.13;;;;;;;3.22;100.00;100531.22;5073958;28;20058;-78
2021/12/18 00:54:38;;;;;;;9.90;6.32;;;;;;;3.27;100.00;100537.97;5073007;28;20111;-77
2021/12/18 00:57:12;;;;;;;9.57;5.70;;;;;;;3.18;100.00;100524.47;5074299;28;20027;-77
2021/12/18 00:59:51;;;;;;;8.15;5.78;;;;;;;3.11;100.00;100527.78;5074139;28;20028;-78
2021/12/18 01:02:37;;;;;;;8.68;6.05;;;;;;;3.20;100.00;100542.94;5072695;28;20021;-78
2021/12/18 01:05:11;;;;;;;7.43;5.60;;;;;;;3.22;100.00;100534.59;5072535;28;20032;-79
2021/12/18 01:07:50;;;;;;;9.00;5.18;;;;;;;3.31;100.00;100528.78;5073732;28;20039;-78
2021/12/18 01:11:20;;;;;;;7.57;4.90;;;;;;;3.29;100.00;100540.50;5072742;28;20040;-77
2021/12/18 01:28:28;;;;;;;7.47;5.25;;;;;;;3.22;100.00;100516.16;5073734;28;20044;-78
2021/12/18 01:31:19;;;;;;;7.47;4.93;;;;;;;3.21;100.00;100530.38;5073307;28;20028;-77
2021/12/18 01:34:02;;;;;;;7.32;5.18;;;;;;;3.01;100.00;100515.94;5073303;28;20109;-78
2021/12/18 01:36:30;;;;;;;8.20;5.47;;;;;;;3.03;100.00;100510.09;5072930;28;20039;-77
2021/12/18 01:39:30;;;;;;;7.32;4.88;;;;;;;3.11;100.00;100518.53;5073290;28;20057;-77
2021/12/18 01:51:58;;;;;;;8.27;4.95;;;;;;;2.84;100.00;100518.25;5072815;28;20075;-78
2021/12/18 01:54:18;;;;;;;8.93;4.60;;;;;;;2.97;100.00;100529.28;5072417;28;20530;-79
2021/12/18 01:56:55;;;;;;;7.70;4.72;;;;;;;2.97;100.00;100525.09;5073040;28;20028;-78
2021/12/18 01:59:53;;;;;;;8.40;4.78;;;;;;;2.98;100.00;100531.81;5072828;28;20120;-78
2021/12/18 02:03:04;;;;;;;6.93;5.03;;;;;;;2.97;100.00;100534.31;5072576;28;20468;-77
2021/12/18 02:05:38;;;;;;;6.47;4.70;;;;;;;3.05;100.00;100537.75;5072350;28;20037;-77
2021/12/18 02:08:09;;;;;;;7.78;4.63;;;;;;;3.00;100.00;100531.81;5072418;28;20024;-78
2021/12/18 02:14:20;;;;;;;8.25;5.35;;;;;;;3.10;100.00;100526.91;5072635;28;20508;-77
2021/12/18 02:23:13;;;;;;;7.60;5.50;;;;;;;3.45;100.00;100528.09;5072766;28;20037;-78
2021/12/18 02:26:22;;;;;;;8.57;5.93;;;;;;;3.29;100.00;100526.28;5071182;28;20538;-78
2021/12/18 02:35:41;;;;;;;13.07;8.50;;;;;;;3.26;100.00;100528.78;5072683;28;20051;-77
2021/12/18 02:39:18;;;;;;;16.45;10.25;;;;;;;3.36;100.00;100535.56;5070875;28;20139;-78
2021/12/18 02:42:07;;;;;;;14.32;9.55;;;;;;;3.24;100.00;100537.09;5071122;28;20047;-78
2021/12/18 02:45:29;;;;;;;13.60;8.88;;;;;;;3.30;100.00;100548.06;5071908;28;20044;-76
2021/12/18 02:48:20;;;;;;;10.10;6.03;;;;;;;3.35;100.00;100536.38;5070740;28;20024;-77
2021/12/18 02:50:46;;;;;;;16.00;9.83;;;;;;;3.19;100.00;100532.03;5071919;28;20419;-77
2021/12/18 02:53:26;;;;;;;12.57;8.93;;;;;;;3.32;100.00;100531.34;5070648;28;20354;-76
2021/12/18 02:56:10;;;;;;;11.38;8.57;;;;;;;3.19;100.00;100532.03;5070495;28;20020;-78
2021/12/18 02:59:12;;;;;;;13.48;8.70;;;;;;;3.26;100.00;100538.81;5072040;28;20473;-77
2021/12/18 03:02:02;;;;;;;14.63;9.15;;;;;;;3.15;100.00;100542.03;5071616;28;20048;-77
2021/12/18 03:04:58;;;;;;;14.23;9.18;;;;;;;3.16;100.00;100554.59;5071992;28;20497;-77
2021/12/18 03:08:04;;;;;;;10.23;6.97;;;;;;;2.84;100.00;100557.56;5070758;28;20029;-78
2021/12/18 03:26:21;;;;;;;13.77;9.07;;;;;;;3.10;100.00;100552.03;5075587;28;20048;-76
2021/12/18 03:28:50;;;;;;;12.32;7.95;;;;;;;2.94;100.00;100551.81;5075695;28;20036;-77
2021/12/18 03:31:19;;;;;;;13.18;8.52;;;;;;;3.10;100.00;100547.00;5074543;28;20029;-77
2021/12/18 03:37:06;;;;;;;7.90;5.63;;;;;;;3.02;100.00;100546.06;5075861;28;20097;-77
2021/12/18 03:43:14;;;;;;;17.77;10.15;;;;;;;3.10;100.00;100559.56;5075326;28;20108;-76
2021/12/18 03:49:02;;;;;;;10.90;7.13;;;;;;;3.11;100.00;100551.19;5075263;28;20046;-76
2021/12/18 03:51:27;;;;;;;12.15;7.80;;;;;;;2.97;100.00;100552.69;5073509;28;20217;-77
2021/12/18 03:54:30;;;;;;;13.50;8.25;;;;;;;2.86;100.00;100556.75;5075118;28;20048;-77
2021/12/18 03:57:05;;;;;;;12.68;8.27;;;;;;;2.99;100.00;100560.28;5073996;28;20028;-77
2021/12/18 03:59:42;;;;;;;10.43;6.95;;;;;;;2.93;100.00;100547.66;5073993;28;20063;-77
2021/12/18 04:02:45;;;;;;;8.40;6.15;;;;;;;3.06;100.00;100562.88;5073607;28;20527;-76
2021/12/18 04:05:18;;;;;;;10.55;7.18;;;;;;;3.10;100.00;100557.06;5074860;28;20485;-77
2021/12/18 04:11:05;;;;;;;9.75;7.40;;;;;;;3.26;100.00;100571.47;5075380;28;20048;-78
2021/12/18 04:13:53;;;;;;;12.10;8.32;;;;;;;3.15;100.00;100583.06;5073388;28;20016;-77
2021/12/18 04:16:54;;;;;;;21.85;14.27;;;;;;;2.95;100.00;100574.44;5074914;28;20058;-77
2021/12/18 04:19:25;;;;;;;27.33;16.25;;;;;;;2.83;100.00;100570.94;5074566;28;20127;-77
2021/12/18 04:22:06;;;;;;;24.63;14.40;;;;;;;3.12;100.00;100583.03;5074359;28;20485;-76
2021/12/18 04:24:47;;;;;;;13.00;8.05;;;;;;;3.22;100.00;100572.25;5074424;28;20424;-76
2021/12/18 04:27:15;;;;;;;10.03;5.77;;;;;;;3.18;100.00;100547.94;5073401;28;20028;-77
2021/12/18 04:29:59;;;;;;;14.38;9.65;;;;;;;3.28;100.00;100576.50;5072225;28;20039;-78
2021/12/18 04:32:26;;;;;;;14.40;8.65;;;;;;;3.09;100.00;100575.44;5074363;28;20086;-77
2021/12/18 04:38:27;;;;;;;14.90;9.88;;;;;;;3.16;100.00;100574.69;5074497;28;20097;-77
2021/12/18 04:41:41;;;;;;;15.68;11.45;;;;;;;3.00;100.00;100579.50;5074282;28;20492;-77
2021/12/18 04:44:34;;;;;;;9.63;7.10;;;;;;;3.03;100.00;100574.56;5074292;28;20043;-77
2021/12/18 04:50:22;;;;;;;9.63;7.07;;;;;;;3.00;100.00;100582.03;5074256;28;20043;-78
2021/12/18 04:52:48;;;;;;;8.02;6.00;;;;;;;2.71;100.00;100579.16;5072607;28;20114;-75
2021/12/18 04:55:54;;;;;;;7.88;6.13;;;;;;;2.87;100.00;100583.56;5073964;28;20485;-77
2021/12/18 04:58:34;;;;;;;7.57;6.18;;;;;;;2.84;100.00;100583.50;5072767;28;20031;-76
2021/12/18 05:01:04;;;;;;;7.97;6.15;;;;;;;2.88;100.00;100591.91;5069690;28;20117;-73
2021/12/18 05:03:38;;;;;;;7.15;5.55;;;;;;;2.96;100.00;100591.19;5072808;28;20025;-73
2021/12/18 05:06:29;;;;;;;6.10;5.28;;;;;;;2.91;100.00;100602.00;5071785;28;20036;-73
2021/12/18 05:08:59;;;;;;;6.20;4.97;;;;;;;2.83;100.00;100586.88;5071264;28;20044;-72
2021/12/18 05:11:27;;;;;;;6.50;5.13;;;;;;;2.94;100.00;100580.28;5072601;28;20052;-72
2021/12/18 05:13:56;;;;;;;7.47;5.18;;;;;;;2.97;100.00;100595.38;5065510;28;20025;-72
2021/12/18 05:16:22;;;;;;;8.60;5.22;;;;;;;2.80;100.00;100581.78;5071967;28;20028;-73
2021/12/18 05:18:50;;;;;;;8.13;5.65;;;;;;;3.09;100.00;100602.25;5071055;28;20408;-73
2021/12/18 05:21:16;;;;;;;11.00;7.35;;;;;;;3.01;100.00;100594.59;5071806;28;20029;-72
2021/12/18 05:23:41;;;;;;;8.02;6.00;;;;;;;2.82;100.00;100584.31;5071747;28;20529;-72
2021/12/18 05:26:17;;;;;;;10.48;6.88;;;;;;;2.68;100.00;100606.72;5072369;28;20404;-75
2021/12/18 05:28:55;;;;;;;11.35;7.85;;;;;;;2.77;100.00;100611.88;5072566;28;20031;-75
2021/12/18 05:31:22;;;;;;;10.85;8.27;;;;;;;3.13;100.00;100616.53;5071843;28;20435;-73
2021/12/18 05:33:52;;;;;;;13.38;8.90;;;;;;;2.76;100.00;100624.38;5071871;28;20024;-74
2021/12/18 05:39:13;;;;;;;17.52;12.80;;;;;;;2.83;100.00;100628.69;5071402;28;20123;-73
2021/12/18 05:41:52;;;;;;;42.25;29.73;;;;;;;2.91;100.00;100630.44;5071735;28;20045;-76
2021/12/18 05:44:21;;;;;;;44.65;30.42;;;;;;;2.68;100.00;100641.84;5070754;28;20111;-74
2021/12/18 05:46:47;;;;;;;36.95;19.85;;;;;;;5.19;100.00;100620.72;5072087;28;20036;-72
2021/12/18 05:49:14;;;;;;;35.55;25.10;;;;;;;3.60;100.00;100659.78;5072264;28;20442;-72
2021/12/18 05:51:40;;;;;;;20.30;14.43;;;;;;;2.71;100.00;100669.53;5069961;28;20054;-73
2021/12/18 05:54:07;;;;;;;19.35;14.38;;;;;;;2.81;100.00;100658.78;5071618;28;20028;-72
2021/12/18 05:56:39;;;;;;;20.13;12.65;;;;;;;2.56;100.00;100646.69;5070838;28;20078;-73
2021/12/18 05:59:07;;;;;;;41.45;23.58;;;;;;;2.85;100.00;100650.47;5070728;28;20025;-73
2021/12/18 06:01:34;;;;;;;34.10;19.80;;;;;;;2.93;100.00;100651.41;5071872;28;20040;-71
2021/12/18 06:04:01;;;;;;;33.63;17.67;;;;;;;3.03;100.00;100650.69;5069719;28;20111;-72
2021/12/18 06:06:34;;;;;;;14.90;9.70;;;;;;;3.20;100.00;100661.81;5069692;28;20732;-73
2021/12/18 06:08:59;;;;;;;13.60;8.63;;;;;;;3.17;100.00;100669.31;5069658;28;20032;-72
2021/12/18 06:11:28;;;;;;;13.95;8.55;;;;;;;3.33;100.00;100681.25;5069622;28;20139;-73
2021/12/18 06:13:54;;;;;;;10.90;7.15;;;;;;;3.41;100.00;100686.34;5070884;28;20505;-72
2021/12/18 06:16:23;;;;;;;11.45;7.38;;;;;;;3.35;100.00;100703.84;5070380;28;20115;-72
2021/12/18 06:18:52;;;;;;;10.85;6.65;;;;;;;3.34;100.00;100709.72;5070232;28;20119;-73
2021/12/18 06:21:22;;;;;;;12.68;8.88;;;;;;;3.53;100.00;100717.50;5071618;28;20052;-72
2021/12/18 06:23:55;;;;;;;11.68;8.10;;;;;;;3.41;100.00;100714.00;5071668;28;20027;-73
2021/12/18 06:26:27;;;;;;;11.75;7.68;;;;;;;3.29;100.00;100721.38;5070290;28;20070;-72
2021/12/18 06:29:06;;;;;;;;;;;;;;;3.57;100.00;100730.09;5071941;28;20051;-73
2021/12/18 06:31:36;;;;;;;12.82;8.48;;;;;;;3.38;100.00;100729.91;5071666;28;20369;-72
2021/12/18 06:34:05;;;;;;;20.45;13.43;;;;;;;3.37;100.00;100703.06;5070194;28;20060;-72
2021/12/18 06:36:39;;;;;;;17.42;12.25;;;;;;;3.83;100.00;100729.59;5071268;28;20861;-72
2021/12/18 06:39:07;;;;;;;17.42;12.25;;;;;;;4.06;100.00;100733.19;5070294;28;20046;-72
2021/12/18 06:41:35;;;;;;;16.13;10.65;;;;;;;4.27;100.00;100737.59;5071742;28;20028;-73
2021/12/18 06:44:01;;;;;;;19.33;12.75;;;;;;;9.40;100.00;100750.00;5070288;28;20074;-72
2021/12/18 06:46:27;;;;;;;19.00;12.32;;;;;;;4.68;100.00;100756.44;5071558;28;20028;-71
2021/12/18 06:48:53;;;;;;;13.02;8.80;;;;;;;4.74;100.00;100766.53;5069707;28;20025;-73
2021/12/18 06:51:19;;;;;;;26.65;14.77;;;;;;;3.83;100.00;100752.22;5070072;28;20045;-72
2021/12/18 06:53:51;;;;;;;13.85;9.38;;;;;;;4.04;100.00;100749.94;5070534;28;20096;-72
2021/12/18 06:56:19;;;;;;;;;;;;;;;3.65;100.00;100759.53;5071640;28;20089;-72
2021/12/18 06:58:47;;;;;;;12.43;7.20;;;;;;;3.91;100.00;100749.78;5069676;28;19920;-72
2021/12/18 07:01:15;;;;;;;15.63;8.90;;;;;;;4.12;100.00;100763.44;5069921;28;20405;-72
2021/12/18 07:03:47;;;;;;;22.95;11.15;;;;;;;3.85;100.00;100763.13;5071173;28;20020;-72
2021/12/18 07:06:24;;;;;;;20.33;8.23;;;;;;;3.79;100.00;100760.56;5070909;28;20167;-73
2021/12/18 07:08:52;;;;;;;22.63;9.20;;;;;;;4.11;100.00;100774.34;5071095;28;20111;-71
2021/12/18 07:11:17;;;;;;;27.92;15.70;;;;;;;3.98;100.00;100774.19;5069987;28;20032;-72
2021/12/18 07:13:43;;;;;;;13.65;8.18;;;;;;;3.91;100.00;100750.63;5070942;28;20028;-72
2021/12/18 07:16:09;;;;;;;18.25;11.20;;;;;;;4.60;100.00;100770.63;5069933;28;20021;-72
2021/12/18 07:18:36;;;;;;;17.33;10.50;;;;;;;5.40;100.00;100770.38;5069723;28;20462;-72
2021/12/18 07:21:03;;;;;;;16.98;11.18;;;;;;;5.64;100.00;100775.53;5071313;28;20139;-72
2021/12/18 07:23:31;;;;;;;14.38;9.60;;;;;;;5.36;100.00;100779.59;5070965;28;20377;-72
2021/12/18 07:25:57;;;;;;;13.15;10.32;;;;;;;5.08;100.00;100785.28;5069601;28;20074;-72
2021/12/18 07:28:22;;;;;;;17.27;12.63;;;;;;;5.11;100.00;100777.75;5070992;28;20106;-72
2021/12/18 07:30:50;;;;;;;12.25;9.52;;;;;;;5.40;100.00;100771.22;5069518;28;20040;-72
2021/12/18 07:33:16;;;;;;;19.30;15.00;;;;;;;6.05;100.00;100776.56;5069367;28;20031;-73
2021/12/18 07:35:42;;;;;;;16.88;13.10;;;;;;;4.94;100.00;100779.28;5070660;28;20029;-72
2021/12/18 07:38:08;;;;;;;11.57;8.00;;;;;;;5.13;100.00;100787.00;5070951;28;20082;-73
2021/12/18 07:40:35;;;;;;;11.88;9.32;;;;;;;5.41;100.00;100779.63;5069601;28;20067;-72
2021/12/18 07:43:02;;;;;;;24.48;18.95;;;;;;;5.55;100.00;100750.25;5069469;28;20024;-72
2021/12/18 07:45:28;;;;;;;41.10;24.85;;;;;;;6.20;100.00;100774.06;5069422;28;20234;-73
2021/12/18 07:47:53;;;;;;;22.63;14.57;;;;;;;5.00;100.00;100785.22;5070635;28;20032;-71
2021/12/18 07:50:20;;;;;;;38.22;18.15;;;;;;;5.79;100.00;100788.22;5069360;28;20025;-72
2021/12/18 07:52:48;;;;;;;152.20;50.58;;;;;;;6.04;100.00;100790.88;5069238;28;20102;-72
2021/12/18 07:55:18;;;;;;;57.80;22.42;;;;;;;5.82;100.00;100798.34;5070928;28;20457;-72
2021/12/18 07:57:50;;;;;;;161.18;63.03;;;;;;;5.64;100.00;100790.66;5069373;28;20029;-73
2021/12/18 08:00:19;;;;;;;59.20;27.45;;;;;;;5.47;100.00;100787.22;5070866;28;20053;-73
2021/12/18 08:02:48;;;;;;;9.13;5.88;;;;;;;5.21;100.00;100800.50;5069546;28;20029;-73
2021/12/18 08:05:16;;;;;;;6.15;4.15;;;;;;;5.57;100.00;100811.63;5073744;28;20048;-73
2021/12/18 08:07:43;;;;;;;4.95;3.30;;;;;;;5.77;100.00;100810.06;5074065;28;20064;-72
2021/12/18 08:10:11;;;;;;;3.75;2.55;;;;;;;5.69;100.00;100810.03;5074332;28;20033;-72
2021/12/18 08:12:37;;;;;;;4.07;2.80;;;;;;;5.39;100.00;100812.38;5074209;28;20043;-72
2021/12/18 08:15:09;;;;;;;4.68;2.83;;;;;;;5.69;100.00;100819.25;5074344;28;20054;-72
2021/12/18 08:17:36;;;;;;;;;;;;;;;5.42;100.00;100835.09;5073443;28;20082;-72
2021/12/18 08:20:03;;;;;;;4.60;2.70;;;;;;;5.06;100.00;100813.00;5074187;28;19935;-72
2021/12/18 08:22:32;;;;;;;4.43;2.55;;;;;;;5.16;100.00;100837.44;5074118;28;20059;-73
2021/12/18 08:25:00;;;;;;;4.57;2.80;;;;;;;5.28;100.00;100847.59;5072642;28;20025;-73
2021/12/18 08:27:28;;;;;;;5.00;2.47;;;;;;;5.28;100.00;100846.75;5073843;28;20017;-73
2021/12/18 08:30:00;;;;;;;5.57;3.25;;;;;;;5.24;100.00;100845.03;5073994;28;20054;-72
2021/12/18 08:32:32;;;;;;;;;;;;;;;5.22;100.00;100849.22;5074263;28;20023;-73
2021/12/18 08:34:58;;;;;;;7.47;3.55;;;;;;;5.40;100.00;100839.28;5073950;28;20399;-72
2021/12/18 08:37:30;;;;;;;5.95;3.13;;;;;;;5.16;100.00;100814.75;5058351;28;20112;-73
2021/12/18 08:39:56;;;;;;;6.28;3.88;;;;;;;5.29;100.00;100845.91;5052592;28;20033;-72
2021/12/18 08:42:22;;;;;;;3.40;2.30;;;;;;;5.36;100.00;100847.66;5053660;28;20501;-72
2021/12/18 08:44:48;;;;;;;4.53;2.80;;;;;;;5.64;100.00;100847.00;5052568;28;20028;-73
2021/12/18 08:47:16;;;;;;;5.28;3.10;;;;;;;5.43;100.00;100851.06;5053506;28;20036;-72
2021/12/18 08:49:49;;;;;;;4.05;2.90;;;;;;;5.17;100.00;100849.19;5053345;28;20108;-72
2021/12/18 08:52:14;;;;;;;3.70;2.47;;;;;;;5.16;100.00;100855.06;5051971;28;20055;-73
2021/12/18 08:54:40;;;;;;;4.13;2.65;;;;;;;5.32;100.00;100847.63;5052357;28;20021;-73
2021/12/18 08:57:06;;;;;;;4.95;2.90;;;;;;;5.17;100.00;100863.44;5053436;28;20382;-72
2021/12/18 08:59:32;;;;;;;5.22;3.17;;;;;;;5.13;100.00;100832.34;5053115;28;20029;-72
2021/12/18 09:02:05;;;;;;;5.47;3.30;;;;;;;5.25;100.00;100864.38;5053244;28;20037;-72
2021/12/18 09:04:33;;;;;;;5.20;3.13;;;;;;;5.17;100.00;100849.19;5053543;28;20021;-73
2021/12/18 09:06:59;;;;;;;5.82;3.38;;;;;;;5.31;100.00;100850.97;5053029;28;20032;-72
2021/12/18 09:09:31;;;;;;;6.72;4.30;;;;;;;5.27;100.00;100840.88;5051696;28;20037;-73
2021/12/18 09:11:57;;;;;;;5.38;3.10;;;;;;;5.17;100.00;100833.22;5051986;28;20079;-74
2021/12/18 09:14:32;;;;;;;7.82;4.07;;;;;;;5.29;100.00;100845.91;5053071;28;20493;-73
2021/12/18 09:16:59;;;;;;;6.95;3.60;;;;;;;5.14;100.00;100838.25;5052090;28;20497;-73
2021/12/18 09:19:40;;;;;;;6.53;4.10;;;;;;;5.04;100.00;100837.34;5053171;28;20485;-73
2021/12/18 09:22:09;;;;;;;8.52;4.35;;;;;;;5.27;100.00;100840.88;5053180;28;20433;-73
2021/12/18 09:24:35;;;;;;;10.60;5.00;;;;;;;5.18;100.00;100819.78;5052821;28;20107;-72
2021/12/18 09:27:02;;;;;;;12.10;5.47;;;;;;;5.52;100.00;100825.91;5051586;28;20039;-73
2021/12/18 09:29:40;;;;;;;6.68;3.75;;;;;;;5.69;100.00;100819.25;5052400;28;20041;-72
2021/12/18 09:32:29;;;;;;;5.10;2.67;;;;;;;5.60;100.00;100819.22;5051403;28;20035;-73
2021/12/18 09:34:56;;;;;;;7.75;4.10;;;;;;;5.79;100.00;100815.97;5051466;28;20032;-73
2021/12/18 09:37:37;;;;;;;6.47;3.80;;;;;;;5.87;100.00;100812.69;5052540;28;20036;-72
2021/12/18 09:40:11;;;;;;;4.43;2.60;;;;;;;5.57;100.00;100799.03;5052626;28;20029;-73
2021/12/18 09:42:38;;;;;;;4.60;3.10;;;;;;;5.47;100.00;100828.38;5051105;28;20029;-72
2021/12/18 09:45:05;;;;;;;4.03;2.60;;;;;;;5.41;100.00;100825.81;5052382;28;20025;-72
2021/12/18 09:47:38;;;;;;;4.68;2.83;;;;;;;5.44;100.00;100840.13;5052233;28;20029;-72
2021/12/18 09:50:04;;;;;;;4.18;2.63;;;;;;;5.54;100.00;100827.63;5052237;28;20404;-73
2021/12/18 09:52:33;;;;;;;6.60;3.55;;;;;;;5.13;100.00;100818.94;5052062;28;20048;-72
2021/12/18 09:55:06;;;;;;;7.00;3.45;;;;;;;5.23;100.00;100819.00;5051054;28;20043;-73
2021/12/18 09:57:32;;;;;;;6.18;3.65;;;;;;;5.50;100.00;100842.69;5052170;28;20025;-72
2021/12/18 10:00:16;;;;;;;7.03;4.13;;;;;;;5.40;100.00;100843.47;5052407;28;20040;-73
2021/12/18 10:02:42;;;;;;;5.22;3.28;;;;;;;5.25;100.00;100816.47;5052100;28;20485;-73
2021/12/18 10:05:30;;;;;;;5.93;3.75;;;;;;;5.27;100.00;100845.91;5051096;28;20072;-72
2021/12/18 10:08:19;;;;;;;4.38;2.67;;;;;;;5.39;100.00;100856.94;5051690;28;20166;-72
2021/12/18 10:11:11;;;;;;;5.82;2.80;;;;;;;5.32;100.00;100855.19;5050889;28;20045;-73
2021/12/18 10:14:08;;;;;;;4.57;2.63;;;;;;;5.34;100.00;100853.50;5050792;28;20064;-72
2021/12/18 10:16:48;;;;;;;4.80;2.80;;;;;;;5.42;100.00;100849.38;5042332;28;20426;-72
2021/12/18 10:19:41;;;;;;;4.28;3.00;;;;;;;5.11;100.00;100825.63;5051973;28;20031;-71
2021/12/18 10:22:11;;;;;;;6.07;3.30;;;;;;;5.34;100.00;100843.44;5051859;28;20024;-73
2021/12/18 10:24:40;;;;;;;4.40;2.47;;;;;;;5.41;100.00;100848.53;5051705;28;20078;-73
2021/12/18 10:27:30;;;;;;;5.95;3.58;;;;;;;5.25;100.00;100852.59;5051886;28;20095;-73
2021/12/18 10:30:20;;;;;;;5.85;3.30;;;;;;;5.24;100.00;100825.75;5051575;28;20078;-73
2021/12/18 10:33:11;;;;;;;5.10;2.90;;;;;;;5.33;100.00;100841.75;5050350;28;20021;-73
2021/12/18 10:35:52;;;;;;;9.60;5.88;;;;;;;5.62;100.00;100833.53;5051898;28;20029;-73
2021/12/18 10:38:48;;;;;;;4.28;2.90;;;;;;;5.53;100.00;100836.00;5051532;28;20099;-73
2021/12/18 10:41:28;;;;;;;5.22;3.30;;;;;;;5.87;100.00;100829.47;5051673;28;20086;-73
2021/12/18 10:44:04;;;;;;;6.47;4.18;;;;;;;6.14;100.00;100835.50;5050317;28;20044;-73
2021/12/18 10:46:41;;;;;;;5.07;2.80;;;;;;;5.97;100.00;100836.25;5051600;28;20031;-73
2021/12/18 10:49:18;;;;;;;6.32;4.05;;;;;;;6.17;100.00;100841.38;5050156;28;20485;-72
2021/12/18 10:51:45;;;;;;;10.82;6.70;;;;;;;6.11;100.00;100835.50;5048366;28;20045;-72
2021/12/18 10:54:35;;;;;;;5.82;3.50;;;;;;;5.88;100.00;100844.63;5051106;28;20037;-73
2021/12/18 10:57:03;;;;;;;4.22;2.50;;;;;;;5.61;100.00;100836.03;5050122;28;20083;-73
2021/12/18 10:59:36;;;;;;;6.88;3.22;;;;;;;5.87;100.00;100839.56;5050038;28;20414;-72
2021/12/18 11:02:05;;;;;;;4.35;2.22;;;;;;;5.55;100.00;100853.66;5050168;28;20051;-73
2021/12/18 11:04:33;;;;;;;21.98;7.88;;;;;;;5.93;100.00;100845.50;5051277;28;20090;-73
2021/12/18 11:07:24;;;;;;;3.95;2.30;;;;;;;5.77;100.00;100843.69;5050758;28;20083;-73
2021/12/18 11:10:18;;;;;;;2.20;1.40;;;;;;;5.77;100.00;100842.84;5049836;28;20036;-72
2021/12/18 11:15:35;;;;;;;2.83;1.50;;;;;;;5.69;100.00;100849.53;5050883;28;20500;-71
2021/12/18 11:18:02;;;;;;;2.13;1.30;;;;;;;5.72;100.00;100844.53;5051010;28;20017;-72
2021/12/18 11:20:34;;;;;;;2.42;1.40;;;;;;;5.33;100.00;100847.63;5050817;28;20126;-72
2021/12/18 11:23:06;;;;;;;5.95;2.85;;;;;;;5.58;100.00;100841.06;5050768;28;20063;-72
2021/12/18 11:25:32;;;;;;;3.90;1.95;;;;;;;5.44;100.00;100812.41;5049818;28;20033;-73
2021/12/18 11:28:01;;;;;;;3.15;1.90;;;;;;;5.31;100.00;100820.75;5050868;28;20037;-73
2021/12/18 11:30:32;;;;;;;2.38;1.52;;;;;;;5.45;100.00;100834.28;5050788;28;20035;-72
2021/12/18 11:33:00;;;;;;;3.90;2.10;;;;;;;5.25;100.00;100842.53;5049989;28;20103;-72
2021/12/18 11:35:27;;;;;;;6.18;3.95;;;;;;;5.41;100.00;100838.44;5049534;28;20033;-71
2021/12/18 11:38:02;;;;;;;5.15;2.92;;;;;;;5.60;100.00;100839.41;5050805;28;20155;-72
2021/12/18 11:40:37;;;;;;;5.03;2.90;;;;;;;5.60;100.00;100837.72;5054817;28;20045;-72
2021/12/18 11:43:30;;;;;;;5.35;3.28;;;;;;;5.71;100.00;100836.09;5054551;28;20497;-72
2021/12/18 11:46:37;;;;;;;4.60;2.90;;;;;;;5.49;100.00;100851.09;5053309;28;20118;-73
2021/12/18 11:49:09;;;;;;;4.22;2.50;;;;;;;5.67;100.00;100843.63;5054313;28;20043;-73
2021/12/18 11:51:35;;;;;;;3.45;2.55;;;;;;;5.95;100.00;100837.94;5053705;28;20053;-73
2021/12/18 11:54:38;;;;;;;4.95;2.30;;;;;;;5.58;100.00;100843.59;5053461;28;20040;-73
2021/12/18 11:57:05;;;;;;;4.53;2.28;;;;;;;5.48;100.00;100837.66;5053169;28;20033;-73
2021/12/18 11:59:44;;;;;;;5.63;2.45;;;;;;;5.57;100.00;100841.88;5054336;28;20120;-72
2021/12/18 12:02:36;;;;;;;3.92;2.15;;;;;;;5.77;100.00;100835.28;5054464;28;20029;-73
2021/12/18 12:05:04;;;;;;;4.80;2.47;;;;;;;5.51;100.00;100804.03;5054537;28;20423;-72
2021/12/18 12:07:37;;;;;;;4.60;1.90;;;;;;;5.28;100.00;100841.72;5074466;28;20078;-73
2021/12/18 12:10:22;;;;;;;8.35;4.40;;;;;;;5.33;100.00;100847.63;5072877;28;20039;-73
2021/12/18 12:12:56;;;;;;;7.32;4.50;;;;;;;5.48;100.00;100846.88;5073817;28;20030;-72
2021/12/18 12:15:25;;;;;;;3.90;2.50;;;;;;;5.61;100.00;100825.94;5074044;28;20437;-73
2021/12/18 12:18:04;;;;;;;4.88;3.17;;;;;;;5.48;100.00;100839.31;5074276;28;20024;-72
2021/12/18 12:20:43;;;;;;;3.35;2.53;;;;;;;5.44;100.00;100851.06;5072432;28;20043;-72
2021/12/18 12:23:11;;;;;;;4.38;2.40;;;;;;;5.35;100.00;100858.56;5073893;28;20033;-73
2021/12/18 12:25:45;;;;;;;4.65;2.40;;;;;;;6.09;100.00;100836.31;5072851;28;20031;-72
2021/12/18 12:28:17;;;;;;;4.90;3.08;;;;;;;5.45;100.00;100849.41;5072691;28;20409;-73
2021/12/18 12:30:52;;;;;;;3.50;2.03;;;;;;;5.65;100.00;100843.63;5073828;28;20393;-73
2021/12/18 12:33:21;;;;;;;4.43;1.95;;;;;;;4.56;100.00;100715.19;5073717;28;20028;-72
2021/12/18 12:36:10;;;;;;;4.13;2.70;;;;;;;5.65;100.00;100851.19;5073806;28;20052;-73
2021/12/18 12:38:56;;;;;;;3.90;2.22;;;;;;;5.72;100.00;100852.09;5073776;28;20493;-72
2021/12/18 12:41:41;;;;;;;5.60;3.05;;;;;;;5.71;100.00;100853.75;5073652;28;20584;-72
2021/12/18 12:44:38;;;;;;;4.32;2.45;;;;;;;5.33;100.00;100850.13;5073466;28;20090;-73
2021/12/18 12:47:20;;;;;;;3.45;2.10;;;;;;;5.54;100.00;100857.03;5072253;28;20032;-72
2021/12/18 12:49:50;;;;;;;2.83;1.70;;;;;;;5.32;100.00;100853.50;5071463;28;20033;-72
2021/12/18 12:52:20;;;;;;;2.38;1.52;;;;;;;5.62;100.00;100860.44;5072404;28;20067;-73
2021/12/18 12:55:12;;;;;;;3.95;1.80;;;;;;;5.77;100.00;100828.56;5073277;28;20020;-72
2021/12/18 12:58:01;;;;;;;3.35;1.98;;;;;;;6.15;100.00;100851.47;5073286;28;20020;-73
2021/12/18 13:00:27;;;;;;;5.93;2.33;;;;;;;7.50;99.13;100855.88;5073278;28;20051;-73
2021/12/18 13:03:27;;;;;;;3.80;2.40;;;;;;;7.85;90.99;100863.38;5073379;28;20474;-72
2021/12/18 13:06:03;;;;;;;3.30;1.95;;;;;;;7.83;88.29;100860.00;5073314;28;20047;-72
2021/12/18 13:08:32;;;;;;;2.92;1.73;;;;;;;7.63;85.17;100832.22;5072970;28;20069;-72
2021/12/18 13:11:20;;;;;;;4.38;2.00;;;;;;;7.76;93.68;100858.34;5071951;28;20024;-73
2021/12/18 13:13:47;;;;;;;3.28;2.15;;;;;;;7.76;93.53;100848.22;5073091;28;20116;-73
2021/12/18 13:16:16;;;;;;;4.32;2.70;;;;;;;6.80;100.00;100861.75;5073158;28;20086;-73
2021/12/18 13:18:57;;;;;;;6.10;3.38;;;;;;;5.97;100.00;100853.94;5072942;28;20025;-72
2021/12/18 13:21:35;;;;;;;5.45;3.58;;;;;;;5.80;100.00;100885.78;5071481;28;20036;-73
2021/12/18 13:24:10;;;;;;;2.15;1.30;;;;;;;5.27;100.00;100883.72;5071589;28;20044;-72
2021/12/18 13:26:38;;;;;;;3.05;1.60;;;;;;;5.23;100.00;100879.47;5071475;28;20495;-72
2021/12/18 13:29:10;;;;;;;2.58;1.60;;;;;;;5.15;100.00;100867.66;5072536;28;20032;-73
2021/12/18 13:31:44;;;;;;;2.75;1.42;;;;;;;5.18;100.00;100877.75;5071587;28;20032;-72
2021/12/18 13:34:22;;;;;;;3.63;2.20;;;;;;;5.80;100.00;100866.41;5072676;28;20111;-71
2021/12/18 13:36:50;;;;;;;5.13;3.00;;;;;;;5.23;100.00;100878.63;5072524;28;20104;-72
2021/12/18 13:39:26;;;;;;;2.25;1.65;;;;;;;4.99;100.00;100875.94;5072373;28;20021;-72